createdAt,value
2022-09-25T00:01:18.116Z,20.10
2022-09-25T00:03:45.752Z,22.83
2022-09-25T00:06:15.035Z,22.57
2022-09-25T00:08:43.295Z,27.27
2022-09-25T00:11:13.055Z,17.60
2022-09-25T00:13:42.754Z,22.47
2022-09-25T00:16:11.915Z,25.90
2022-09-25T00:18:58.249Z,25.97
2022-09-25T00:21:29.213Z,20.03
2022-09-25T00:23:56.812Z,24.03
2022-09-25T00:26:27.605Z,25.00
2022-09-25T00:28:55.960Z,25.70
2022-09-25T00:31:25.267Z,27.97
2022-09-25T00:33:54.242Z,23.33
2022-09-25T00:36:22.512Z,23.87
2022-09-25T00:38:50.638Z,20.50
2022-09-25T00:41:20.310Z,24.60
2022-09-25T00:43:50.717Z,24.07
2022-09-25T00:46:23.292Z,25.10
2022-09-25T00:48:56.012Z,22.10
2022-09-25T00:51:29.638Z,27.23
2022-09-25T00:54:01.070Z,21.17
2022-09-25T00:56:30.747Z,19.50
2022-09-25T00:58:58.523Z,23.90
2022-09-25T01:01:26.373Z,18.93
2022-09-25T01:03:55.966Z,24.60
2022-09-25T01:06:26.576Z,24.23
2022-09-25T01:08:54.517Z,23.43
2022-09-25T01:11:22.018Z,17.90
2022-09-25T01:13:49.949Z,21.80
2022-09-25T01:16:24.469Z,18.33
2022-09-25T01:19:04.712Z,16.20
2022-09-25T01:21:38.981Z,19.10
2022-09-25T01:24:29.326Z,17.58
2022-09-25T01:27:31.627Z,13.90
2022-09-25T01:30:06.639Z,17.47
2022-09-25T01:32:45.228Z,16.63
2022-09-25T01:35:19.238Z,17.93
2022-09-25T01:37:55.053Z,19.30
2022-09-25T01:40:29.327Z,17.77
2022-09-25T01:43:02.456Z,20.45
2022-09-25T01:45:37.537Z,16.93
2022-09-25T01:48:09.844Z,21.60
2022-09-25T01:50:43.917Z,16.90
2022-09-25T01:53:16.940Z,17.40
2022-09-25T01:55:48.326Z,19.30
2022-09-25T01:58:21.629Z,15.23
2022-09-25T02:00:55.463Z,17.00
2022-09-25T02:03:26.570Z,15.17
2022-09-25T02:05:57.898Z,19.77
2022-09-25T02:08:30.547Z,19.70
2022-09-25T02:11:02.139Z,18.13
2022-09-25T02:13:37.378Z,19.17
2022-09-25T02:16:12.769Z,19.50
2022-09-25T02:18:58.153Z,18.67
2022-09-25T02:21:35.792Z,17.20
2022-09-25T02:24:11.510Z,19.37
2022-09-25T02:26:39.011Z,17.90
2022-09-25T02:29:08.659Z,20.37
2022-09-25T02:31:41.355Z,21.27
2022-09-25T02:34:14.441Z,20.93
2022-09-25T02:36:44.567Z,22.25
2022-09-25T02:39:13.754Z,26.57
2022-09-25T02:41:58.742Z,21.30
2022-09-25T02:44:36.329Z,20.93
2022-09-25T02:47:19.399Z,19.63
2022-09-25T02:49:54.515Z,22.37
2022-09-25T02:52:29.996Z,24.30
2022-09-25T02:55:03.860Z,23.87
2022-09-25T02:57:40.456Z,22.90
2022-09-25T03:00:09.821Z,23.60
2022-09-25T03:02:40.487Z,22.87
2022-09-25T03:05:13.457Z,28.50
2022-09-25T03:07:55.448Z,24.70
2022-09-25T03:10:24.084Z,21.87
2022-09-25T03:12:51.534Z,23.63
2022-09-25T03:15:19.384Z,26.90
2022-09-25T03:17:48.578Z,26.10
2022-09-25T03:20:16.100Z,24.23
2022-09-25T03:22:43.524Z,24.43
2022-09-25T03:25:11.249Z,23.10
2022-09-25T03:27:38.756Z,23.60
2022-09-25T03:30:07.313Z,20.70
2022-09-25T03:32:34.756Z,25.80
2022-09-25T03:35:03.560Z,17.73
2022-09-25T03:37:32.104Z,20.97
2022-09-25T03:40:01.089Z,25.07
2022-09-25T03:42:28.893Z,19.70
2022-09-25T03:44:56.435Z,17.97
2022-09-25T03:47:24.120Z,16.87
2022-09-25T03:49:51.617Z,14.30
2022-09-25T03:52:21.946Z,16.07
2022-09-25T03:54:49.410Z,13.53
2022-09-25T03:57:16.890Z,11.57
2022-09-25T03:59:44.375Z,15.13
2022-09-25T04:02:13.126Z,13.00
2022-09-25T04:04:40.684Z,10.50
2022-09-25T04:07:08.618Z,12.73
2022-09-25T04:09:37.427Z,13.13
2022-09-25T04:12:07.353Z,12.80
2022-09-25T04:14:34.835Z,11.10
2022-09-25T04:17:02.263Z,14.63
2022-09-25T04:19:29.818Z,9.70
2022-09-25T04:21:57.509Z,13.57
2022-09-25T04:24:42.665Z,17.13
2022-09-25T04:27:11.553Z,10.83
2022-09-25T04:29:38.982Z,12.20
2022-09-25T04:32:24.068Z,11.53
2022-09-25T04:34:51.554Z,12.13
2022-09-25T04:37:22.784Z,15.37
2022-09-25T04:39:50.260Z,10.43
2022-09-25T04:42:21.037Z,13.17
2022-09-25T04:44:48.549Z,12.10
2022-09-25T04:47:15.963Z,10.93
2022-09-25T04:49:43.388Z,13.03
2022-09-25T04:52:13.085Z,9.30
2022-09-25T04:54:40.676Z,12.53
2022-09-25T04:57:08.140Z,14.27
2022-09-25T04:59:37.163Z,10.50
2022-09-25T05:02:04.755Z,11.13
2022-09-25T05:04:32.599Z,12.23
2022-09-25T05:07:00.213Z,10.97
2022-09-25T05:09:27.775Z,12.53
2022-09-25T05:11:55.344Z,12.83
2022-09-25T05:14:23.157Z,13.80
2022-09-25T05:16:52.210Z,15.33
2022-09-25T05:19:19.832Z,14.63
2022-09-25T05:21:47.387Z,11.43
2022-09-25T05:24:14.892Z,19.87
2022-09-25T05:26:42.446Z,14.53
2022-09-25T05:29:10.917Z,16.53
2022-09-25T05:31:38.802Z,16.30
2022-09-25T05:34:08.493Z,13.17
2022-09-25T05:36:36.092Z,12.93
2022-09-25T05:39:03.558Z,10.13
2022-09-25T05:41:31.229Z,9.00
2022-09-25T05:43:58.874Z,11.73
2022-09-25T05:46:26.617Z,9.90
2022-09-25T05:48:54.298Z,13.33
2022-09-25T05:51:23.076Z,9.07
2022-09-25T05:53:50.997Z,10.73
2022-09-25T05:56:18.662Z,15.20
2022-09-25T05:58:46.980Z,13.23
2022-09-25T06:01:14.556Z,12.20
2022-09-25T06:03:42.762Z,14.13
2022-09-25T06:06:10.419Z,7.37
2022-09-25T06:08:39.296Z,12.70
2022-09-25T06:11:07.796Z,13.47
2022-09-25T06:13:36.942Z,8.90
2022-09-25T06:16:05.806Z,10.00
2022-09-25T06:18:34.076Z,10.30
2022-09-25T06:21:03.418Z,11.47
2022-09-25T06:23:31.924Z,7.30
2022-09-25T06:26:05.124Z,8.60
2022-09-25T06:28:34.357Z,9.57
2022-09-25T06:31:02.464Z,10.43
2022-09-25T06:33:30.430Z,8.90
2022-09-25T06:35:57.946Z,10.57
2022-09-25T06:38:25.975Z,14.13
2022-09-25T06:40:54.122Z,13.33
2022-09-25T06:43:25.024Z,11.70
2022-09-25T06:45:52.564Z,16.63
2022-09-25T06:48:21.939Z,10.60
2022-09-25T06:50:52.367Z,14.07
2022-09-25T06:53:21.284Z,12.53
2022-09-25T06:55:49.698Z,11.23
2022-09-25T06:58:19.749Z,11.90
2022-09-25T07:00:49.295Z,10.50
2022-09-25T07:03:34.706Z,11.17
2022-09-25T07:06:02.944Z,16.03
2022-09-25T07:08:31.121Z,8.87
2022-09-25T07:10:59.966Z,9.43
2022-09-25T07:13:31.531Z,13.33
2022-09-25T07:16:01.576Z,11.67
2022-09-25T07:18:30.593Z,7.83
2022-09-25T07:21:02.240Z,9.57
2022-09-25T07:23:31.183Z,7.90
2022-09-25T07:26:05.428Z,8.40
2022-09-25T07:28:33.084Z,9.73
2022-09-25T07:31:11.243Z,6.53
2022-09-25T07:33:38.857Z,7.93
2022-09-25T07:36:06.780Z,11.43
2022-09-25T07:38:36.794Z,10.90
2022-09-25T07:41:06.219Z,7.57
2022-09-25T07:43:34.154Z,11.10
2022-09-25T07:46:03.129Z,9.80
2022-09-25T07:48:31.619Z,10.07
2022-09-25T07:51:01.210Z,7.50
2022-09-25T07:53:29.150Z,9.00
2022-09-25T07:56:01.049Z,8.67
2022-09-25T07:58:32.797Z,17.33
2022-09-25T08:01:01.913Z,9.27
2022-09-25T08:03:30.822Z,11.47
2022-09-25T08:05:58.956Z,11.07
2022-09-25T08:08:27.185Z,7.87
2022-09-25T08:10:55.926Z,10.87
2022-09-25T08:13:23.493Z,10.97
2022-09-25T08:15:51.731Z,10.97
2022-09-25T08:18:19.405Z,13.37
2022-09-25T08:20:48.286Z,11.50
2022-09-25T08:23:15.934Z,7.60
2022-09-25T08:25:43.356Z,11.33
2022-09-25T08:28:11.282Z,8.10
2022-09-25T08:30:38.735Z,10.10
2022-09-25T08:33:15.543Z,6.60
2022-09-25T08:35:44.010Z,11.50
2022-09-25T08:38:13.266Z,7.30
2022-09-25T08:40:54.305Z,9.03
2022-09-25T08:43:24.560Z,10.17
2022-09-25T08:46:10.737Z,5.17
2022-09-25T08:49:10.907Z,7.20
2022-09-25T08:51:41.524Z,7.17
2022-09-25T08:54:18.478Z,5.37
2022-09-25T08:56:49.808Z,13.55
2022-09-25T08:59:23.904Z,9.87
2022-09-25T09:01:56.462Z,7.33
2022-09-25T09:04:31.940Z,6.13
2022-09-25T09:07:25.649Z,6.03
2022-09-25T09:10:01.189Z,8.93
2022-09-25T09:12:35.215Z,6.30
2022-09-25T09:15:16.859Z,9.10
2022-09-25T09:17:44.435Z,6.63
2022-09-25T09:20:18.817Z,6.90
2022-09-25T09:22:50.705Z,8.77
2022-09-25T09:25:29.150Z,8.10
2022-09-25T09:28:27.489Z,7.20
2022-09-25T09:31:04.707Z,9.77
2022-09-25T09:33:44.721Z,9.77
2022-09-25T09:36:19.298Z,6.93
2022-09-25T09:38:52.775Z,8.60
2022-09-25T09:41:33.382Z,10.90
2022-09-25T09:44:23.130Z,8.50
2022-09-25T09:46:58.843Z,9.40
2022-09-25T09:49:33.166Z,10.57
2022-09-25T09:52:06.038Z,12.23
2022-09-25T09:54:38.805Z,6.70
2022-09-25T09:57:16.453Z,7.03
2022-09-25T09:59:48.210Z,6.67
2022-09-25T10:02:28.200Z,14.17
2022-09-25T10:04:58.254Z,7.27
2022-09-25T10:07:28.181Z,11.33
2022-09-25T10:09:56.676Z,10.63
2022-09-25T10:12:30.055Z,5.47
2022-09-25T10:15:01.256Z,6.73
2022-09-25T10:17:31.105Z,9.17
2022-09-25T10:20:02.306Z,5.87
2022-09-25T10:22:37.840Z,5.50
2022-09-25T10:25:06.592Z,6.10
2022-09-25T10:27:37.100Z,5.83
2022-09-25T10:30:13.410Z,6.60
2022-09-25T10:32:44.298Z,4.10
2022-09-25T10:35:17.990Z,4.07
2022-09-25T10:37:51.227Z,5.80
2022-09-25T10:40:26.693Z,4.87
2022-09-25T10:43:20.549Z,5.33
2022-09-25T10:45:49.480Z,5.30
2022-09-25T10:48:48.629Z,6.32
2022-09-25T10:51:18.268Z,6.00
2022-09-25T10:53:47.104Z,3.60
2022-09-25T10:56:18.851Z,8.07
2022-09-25T10:58:52.184Z,7.77
2022-09-25T11:01:20.025Z,5.40
2022-09-25T11:03:53.586Z,9.13
2022-09-25T11:06:24.991Z,5.00
2022-09-25T11:09:03.368Z,8.67
2022-09-25T11:11:31.135Z,8.63
2022-09-25T11:14:03.724Z,6.00
2022-09-25T11:16:47.380Z,5.57
2022-09-25T11:19:17.592Z,10.97
2022-09-25T11:21:51.348Z,9.33
2022-09-25T11:24:24.816Z,6.47
2022-09-25T11:27:02.607Z,9.27
2022-09-25T11:29:43.159Z,9.17
2022-09-25T11:32:21.456Z,5.13
2022-09-25T11:35:22.670Z,6.03
2022-09-25T11:37:58.241Z,4.30
2022-09-25T11:40:53.426Z,5.33
2022-09-25T11:43:31.273Z,4.10
2022-09-25T11:46:07.430Z,6.50
2022-09-25T11:48:47.503Z,4.70
2022-09-25T11:51:24.971Z,7.23
2022-09-25T11:54:26.990Z,6.10
2022-09-25T11:56:58.463Z,2.70
2022-09-25T11:59:39.302Z,3.33
2022-09-25T12:02:20.871Z,4.80
2022-09-25T12:05:15.547Z,4.83
2022-09-25T12:08:04.108Z,8.07
2022-09-25T12:10:43.980Z,3.17
2022-09-25T12:13:20.879Z,4.70
2022-09-25T12:15:59.867Z,3.83
2022-09-25T12:18:52.920Z,4.80
2022-09-25T12:21:34.524Z,3.83
2022-09-25T12:24:12.174Z,2.87
2022-09-25T12:26:52.659Z,2.63
2022-09-25T12:29:33.047Z,3.20
2022-09-25T12:32:09.208Z,2.60
2022-09-25T12:34:55.641Z,5.73
2022-09-25T12:37:35.001Z,3.97
2022-09-25T12:40:06.144Z,1.70
2022-09-25T12:42:44.135Z,2.00
2022-09-25T12:45:19.203Z,3.63
2022-09-25T12:47:58.958Z,4.30
2022-09-25T12:50:31.327Z,5.13
2022-09-25T12:53:04.193Z,1.90
2022-09-25T12:55:38.152Z,4.63
2022-09-25T12:58:18.102Z,5.17
2022-09-25T13:00:50.456Z,2.80
2022-09-25T13:03:24.722Z,2.70
2022-09-25T13:06:04.753Z,1.70
2022-09-25T13:08:38.270Z,3.00
2022-09-25T13:11:13.222Z,2.20
2022-09-25T13:13:46.260Z,3.00
2022-09-25T13:16:15.932Z,1.90
2022-09-25T13:18:49.215Z,2.50
2022-09-25T13:21:27.584Z,1.40
2022-09-25T13:23:57.673Z,1.57
2022-09-25T13:26:27.718Z,2.00
2022-09-25T13:28:58.857Z,1.80
2022-09-25T13:31:28.898Z,2.13
2022-09-25T13:34:04.159Z,1.47
2022-09-25T13:36:36.917Z,2.50
2022-09-25T13:39:32.817Z,1.90
2022-09-25T13:42:04.305Z,3.17
2022-09-25T13:44:48.803Z,2.20
2022-09-25T13:47:45.251Z,3.90
2022-09-25T13:50:28.112Z,2.00
2022-09-25T13:53:20.112Z,4.60
2022-09-25T13:56:06.945Z,3.73
2022-09-25T13:59:10.056Z,2.17
2022-09-25T14:01:40.050Z,1.50
2022-09-25T14:04:19.984Z,1.33
2022-09-25T14:06:51.190Z,1.70
2022-09-25T14:09:23.496Z,2.70
2022-09-25T14:11:57.928Z,3.33
2022-09-25T14:14:31.199Z,1.73
2022-09-25T14:16:59.800Z,3.47
2022-09-25T14:19:31.265Z,1.93
2022-09-25T14:22:01.253Z,3.67
2022-09-25T14:24:31.926Z,1.40
2022-09-25T14:27:02.091Z,1.80
2022-09-25T14:29:32.688Z,1.80
2022-09-25T14:32:43.222Z,2.22
2022-09-25T14:35:25.232Z,2.40
2022-09-25T14:38:07.464Z,1.53
2022-09-25T14:40:40.914Z,2.10
2022-09-25T14:43:34.426Z,2.13
2022-09-25T14:46:06.443Z,2.60
2022-09-25T14:48:39.428Z,2.83
2022-09-25T14:51:10.929Z,7.90
2022-09-25T14:53:42.639Z,1.40
2022-09-25T14:56:14.592Z,2.10
2022-09-25T14:58:45.455Z,1.57
2022-09-25T15:01:19.657Z,1.47
2022-09-25T15:03:50.229Z,3.43
2022-09-25T15:06:26.521Z,1.35
2022-09-25T15:08:54.030Z,1.83
2022-09-25T15:11:26.938Z,1.67
2022-09-25T15:13:55.042Z,1.70
2022-09-25T15:16:42.765Z,2.07
2022-09-25T15:19:20.589Z,1.43
2022-09-25T15:21:48.565Z,1.53
2022-09-25T15:24:21.131Z,1.67
2022-09-25T15:26:53.029Z,2.03
2022-09-25T15:29:23.066Z,2.30
2022-09-25T15:31:52.463Z,3.33
2022-09-25T15:34:25.460Z,1.83
2022-09-25T15:36:53.699Z,1.33
2022-09-25T15:39:25.200Z,2.07
2022-09-25T15:41:55.180Z,2.30
2022-09-25T15:44:24.560Z,3.27
2022-09-25T15:46:54.718Z,1.50
2022-09-25T15:49:28.086Z,1.80
2022-09-25T15:52:00.975Z,1.40
2022-09-25T15:54:37.400Z,2.60
2022-09-25T15:57:11.148Z,2.70
2022-09-25T16:00:04.038Z,1.60
2022-09-25T16:02:55.096Z,1.90
2022-09-25T16:05:29.547Z,6.17
2022-09-25T16:08:17.160Z,2.97
2022-09-25T16:10:49.869Z,1.30
2022-09-25T16:13:25.382Z,1.60
2022-09-25T16:15:54.413Z,2.63
2022-09-25T16:18:35.200Z,2.30
2022-09-25T16:21:15.550Z,1.60
2022-09-25T16:23:43.966Z,3.73
2022-09-25T16:26:16.725Z,1.47
2022-09-25T16:28:54.322Z,1.57
2022-09-25T16:31:23.579Z,2.20
2022-09-25T16:33:54.968Z,1.40
2022-09-25T16:36:22.696Z,0.90
2022-09-25T16:39:14.981Z,3.63
2022-09-25T16:41:48.467Z,1.23
2022-09-25T16:44:19.928Z,1.47
2022-09-25T16:47:05.993Z,1.43
2022-09-25T16:50:09.893Z,3.80
2022-09-25T16:52:43.395Z,1.07
2022-09-25T16:55:18.795Z,2.40
2022-09-25T16:58:04.707Z,3.05
2022-09-25T17:00:33.972Z,2.70
2022-09-25T17:03:02.166Z,1.40
2022-09-25T17:05:31.990Z,1.20
2022-09-25T17:08:10.829Z,1.30
2022-09-25T17:10:41.389Z,1.53
2022-09-25T17:13:09.873Z,4.17
2022-09-25T17:15:40.340Z,1.60
2022-09-25T17:18:16.164Z,3.13
2022-09-25T17:20:43.649Z,2.13
2022-09-25T17:23:11.878Z,1.43
2022-09-25T17:25:42.558Z,1.53
2022-09-25T17:28:11.219Z,1.40
2022-09-25T17:30:40.953Z,1.17
2022-09-25T17:33:15.187Z,1.70
2022-09-25T17:35:47.084Z,2.40
2022-09-25T17:38:14.606Z,1.50
2022-09-25T17:40:44.455Z,5.40
2022-09-25T17:43:14.011Z,1.43
2022-09-25T17:45:48.232Z,1.77
2022-09-25T17:48:16.065Z,1.87
2022-09-25T17:50:45.658Z,2.43
2022-09-25T17:53:17.926Z,4.93
2022-09-25T17:55:51.174Z,3.47
2022-09-25T17:58:21.889Z,3.30
2022-09-25T18:00:51.938Z,6.77
2022-09-25T18:03:20.483Z,6.57
2022-09-25T18:05:48.441Z,4.47
2022-09-25T18:08:16.383Z,6.53
2022-09-25T18:10:44.397Z,4.80
2022-09-25T18:13:20.001Z,8.70
2022-09-25T18:15:49.725Z,9.47
2022-09-25T18:18:18.707Z,11.83
2022-09-25T18:21:08.894Z,15.87
2022-09-25T18:23:38.814Z,9.60
2022-09-25T18:26:08.762Z,10.60
2022-09-25T18:28:36.599Z,17.30
2022-09-25T18:31:04.140Z,11.30
2022-09-25T18:33:33.031Z,9.77
2022-09-25T18:36:00.523Z,11.30
2022-09-25T18:38:28.055Z,14.33
2022-09-25T18:40:55.772Z,12.20
2022-09-25T18:43:23.310Z,17.27
2022-09-25T18:45:51.525Z,15.30
2022-09-25T18:48:19.409Z,16.07
2022-09-25T18:50:49.014Z,9.30
2022-09-25T18:53:17.531Z,12.73
2022-09-25T18:55:45.181Z,9.93
2022-09-25T18:58:13.564Z,9.30
2022-09-25T19:00:42.355Z,8.47
2022-09-25T19:03:09.970Z,9.50
2022-09-25T19:05:37.970Z,7.60
2022-09-25T19:08:06.903Z,7.77
2022-09-25T19:10:35.131Z,10.50
2022-09-25T19:13:02.628Z,6.30
2022-09-25T19:15:30.264Z,6.60
2022-09-25T19:17:58.382Z,7.20
2022-09-25T19:20:26.009Z,6.20
2022-09-25T19:22:53.944Z,11.83
2022-09-25T19:25:23.009Z,5.00
2022-09-25T19:27:50.485Z,4.57
2022-09-25T19:30:18.230Z,5.20
2022-09-25T19:32:45.754Z,5.77
2022-09-25T19:35:13.795Z,4.20
2022-09-25T19:37:42.326Z,9.93
2022-09-25T19:40:28.080Z,8.73
2022-09-25T19:42:57.820Z,7.80
2022-09-25T19:45:26.049Z,8.10
2022-09-25T19:47:53.475Z,7.57
2022-09-25T19:50:23.392Z,7.50
2022-09-25T19:52:51.481Z,9.33
2022-09-25T19:55:19.673Z,5.80
2022-09-25T19:57:47.582Z,5.40
2022-09-25T20:00:18.476Z,5.00
2022-09-25T20:02:47.371Z,4.88
2022-09-25T20:05:16.379Z,4.23
2022-09-25T20:07:43.936Z,9.10
2022-09-25T20:10:11.462Z,5.10
2022-09-25T20:12:39.121Z,4.43
2022-09-25T20:15:07.903Z,6.83
2022-09-25T20:17:36.705Z,5.03
2022-09-25T20:20:04.629Z,5.72
2022-09-25T20:22:32.384Z,5.50
2022-09-25T20:24:59.937Z,7.40
2022-09-25T20:27:27.595Z,5.00
2022-09-25T20:29:55.129Z,5.87
2022-09-25T20:32:22.594Z,5.70
2022-09-25T20:34:51.709Z,5.87
2022-09-25T20:37:19.638Z,5.23
2022-09-25T20:39:47.512Z,4.37
2022-09-25T20:42:17.013Z,7.30
2022-09-25T20:44:44.764Z,4.00
2022-09-25T20:47:12.263Z,7.23
2022-09-25T20:49:39.807Z,4.40
2022-09-25T20:52:09.974Z,4.60
2022-09-25T20:54:37.583Z,3.67
2022-09-25T20:57:05.044Z,3.70
2022-09-25T20:59:32.789Z,4.27
2022-09-25T21:02:00.454Z,5.83
2022-09-25T21:04:28.293Z,4.43
2022-09-25T21:06:55.873Z,5.17
2022-09-25T21:09:26.767Z,4.80
2022-09-25T21:11:54.887Z,4.45
2022-09-25T21:14:24.811Z,3.53
2022-09-25T21:16:53.084Z,4.83
2022-09-25T21:19:22.037Z,4.43
2022-09-25T21:21:56.768Z,4.67
2022-09-25T21:24:25.762Z,4.33
2022-09-25T21:26:53.258Z,3.50
2022-09-25T21:29:21.090Z,4.50
2022-09-25T21:31:50.603Z,5.00
2022-09-25T21:34:19.278Z,4.00
2022-09-25T21:36:46.804Z,4.87
2022-09-25T21:39:14.377Z,3.80
2022-09-25T21:41:43.348Z,4.53
2022-09-25T21:44:14.000Z,3.87
2022-09-25T21:46:42.223Z,5.13
2022-09-25T21:49:15.262Z,5.57
2022-09-25T21:51:44.887Z,3.97
2022-09-25T21:54:13.354Z,5.37
2022-09-25T21:56:44.287Z,4.07
2022-09-25T21:59:12.268Z,4.27
2022-09-25T22:01:40.592Z,4.30
2022-09-25T22:04:11.276Z,5.27
2022-09-25T22:06:40.420Z,4.47
2022-09-25T22:09:10.161Z,3.83
2022-09-25T22:11:38.831Z,7.40
2022-09-25T22:14:13.264Z,5.47
2022-09-25T22:16:43.920Z,6.20
2022-09-25T22:19:14.705Z,4.17
2022-09-25T22:21:44.262Z,4.23
2022-09-25T22:24:12.403Z,4.73
2022-09-25T22:26:42.771Z,4.40
2022-09-25T22:29:12.433Z,4.87
2022-09-25T22:31:42.873Z,3.83
2022-09-25T22:34:16.465Z,5.60
2022-09-25T22:36:44.368Z,9.27
2022-09-25T22:39:14.506Z,5.50
2022-09-25T22:41:45.373Z,6.43
2022-09-25T22:44:14.395Z,5.53
2022-09-25T22:46:41.900Z,5.23
2022-09-25T22:49:09.725Z,6.20
2022-09-25T22:51:37.726Z,4.70
2022-09-25T22:54:05.851Z,5.38
2022-09-25T22:56:35.120Z,4.73
2022-09-25T22:59:05.333Z,5.28
2022-09-25T23:01:37.756Z,4.40
2022-09-25T23:04:07.742Z,4.73
2022-09-25T23:06:36.345Z,5.32
2022-09-25T23:09:06.153Z,5.10
2022-09-25T23:11:33.749Z,4.43
2022-09-25T23:14:03.350Z,5.60
2022-09-25T23:16:32.547Z,5.73
2022-09-25T23:19:02.401Z,2.63
2022-09-25T23:21:31.523Z,3.67
2022-09-25T23:24:00.140Z,6.60
2022-09-25T23:26:27.688Z,6.73
2022-09-25T23:28:55.245Z,5.73
2022-09-25T23:31:22.854Z,3.70
2022-09-25T23:33:50.626Z,6.03
2022-09-25T23:36:21.179Z,3.00
2022-09-25T23:38:49.679Z,4.32
2022-09-25T23:41:19.130Z,3.23
2022-09-25T23:43:48.280Z,3.43
2022-09-25T23:46:17.477Z,3.73
2022-09-25T23:48:46.024Z,4.70
2022-09-25T23:51:15.534Z,3.67
2022-09-25T23:53:45.677Z,7.40
2022-09-25T23:56:15.425Z,2.30
2022-09-25T23:58:43.679Z,2.90
